createdAt,value
2022-09-22T00:01:55.821Z,5.88
2022-09-22T00:04:00.433Z,5.80
2022-09-22T00:06:07.317Z,5.60
2022-09-22T00:08:10.205Z,5.28
2022-09-22T00:10:13.082Z,6.70
2022-09-22T00:12:16.178Z,8.18
2022-09-22T00:14:22.417Z,8.35
2022-09-22T00:16:28.048Z,6.60
2022-09-22T00:18:31.154Z,6.05
2022-09-22T00:20:34.093Z,5.32
2022-09-22T00:22:37.091Z,5.88
2022-09-22T00:24:40.317Z,5.15
2022-09-22T00:26:43.491Z,5.40
2022-09-22T00:28:48.325Z,5.70
2022-09-22T00:30:52.800Z,5.38
2022-09-22T00:32:56.130Z,5.20
2022-09-22T00:34:59.264Z,5.10
2022-09-22T00:37:02.291Z,5.43
2022-09-22T00:39:05.512Z,4.40
2022-09-22T00:41:16.933Z,4.57
2022-09-22T00:43:22.712Z,4.80
2022-09-22T00:45:25.647Z,4.80
2022-09-22T00:47:34.490Z,4.93
2022-09-22T00:49:43.243Z,5.15
2022-09-22T00:51:46.218Z,4.75
2022-09-22T00:53:49.444Z,4.78
2022-09-22T00:55:55.483Z,4.85
2022-09-22T00:57:58.656Z,4.25
2022-09-22T01:00:02.953Z,4.78
2022-09-22T01:02:06.369Z,5.40
2022-09-22T01:04:10.801Z,5.20
2022-09-22T01:06:17.490Z,3.90
2022-09-22T01:08:21.665Z,5.00
2022-09-22T01:10:26.312Z,4.55
2022-09-22T01:12:30.800Z,4.40
2022-09-22T01:14:43.951Z,4.70
2022-09-22T01:16:53.402Z,4.35
2022-09-22T01:19:08.378Z,4.88
2022-09-22T01:21:23.989Z,4.85
2022-09-22T01:23:54.048Z,4.00
2022-09-22T01:26:08.439Z,4.38
2022-09-22T01:28:24.499Z,4.70
2022-09-22T01:30:32.609Z,4.95
2022-09-22T01:32:41.642Z,4.72
2022-09-22T01:34:48.932Z,5.28
2022-09-22T01:36:58.330Z,4.97
2022-09-22T01:39:07.542Z,4.65
2022-09-22T01:41:15.188Z,4.73
2022-09-22T01:43:27.917Z,4.78
2022-09-22T01:45:34.636Z,4.30
2022-09-22T01:47:40.747Z,4.75
2022-09-22T01:49:46.884Z,4.45
2022-09-22T01:51:53.009Z,5.07
2022-09-22T01:54:00.623Z,5.20
2022-09-22T01:56:06.468Z,5.07
2022-09-22T01:58:13.004Z,4.55
2022-09-22T02:00:16.496Z,4.72
2022-09-22T02:02:25.771Z,5.03
2022-09-22T02:04:34.234Z,5.10
2022-09-22T02:06:39.107Z,4.80
2022-09-22T02:08:45.287Z,5.05
2022-09-22T02:10:48.976Z,4.20
2022-09-22T02:12:52.178Z,4.70
2022-09-22T02:14:55.117Z,5.00
2022-09-22T02:16:58.239Z,4.75
2022-09-22T02:19:12.979Z,4.60
2022-09-22T02:21:17.656Z,4.95
2022-09-22T02:23:21.054Z,4.53
2022-09-22T02:25:24.864Z,5.00
2022-09-22T02:27:36.468Z,4.93
2022-09-22T02:29:43.000Z,5.13
2022-09-22T02:31:46.281Z,4.95
2022-09-22T02:33:49.703Z,4.63
2022-09-22T02:36:00.743Z,4.45
2022-09-22T02:38:06.430Z,4.82
2022-09-22T02:40:14.663Z,5.07
2022-09-22T02:42:25.983Z,4.60
2022-09-22T02:44:31.999Z,5.32
2022-09-22T02:46:40.111Z,5.32
2022-09-22T02:48:47.588Z,4.75
2022-09-22T02:50:50.519Z,4.93
2022-09-22T02:52:59.325Z,5.38
2022-09-22T02:55:02.255Z,5.60
2022-09-22T02:57:05.240Z,5.00
2022-09-22T02:59:09.400Z,5.28
2022-09-22T03:01:12.474Z,5.20
2022-09-22T03:03:15.500Z,5.30
2022-09-22T03:05:18.434Z,5.43
2022-09-22T03:07:21.326Z,4.70
2022-09-22T03:09:25.657Z,4.95
2022-09-22T03:11:28.586Z,5.10
2022-09-22T03:13:31.523Z,4.97
2022-09-22T03:15:34.559Z,4.90
2022-09-22T03:17:37.639Z,4.93
2022-09-22T03:19:40.583Z,4.70
2022-09-22T03:21:43.834Z,5.18
2022-09-22T03:23:46.805Z,4.80
2022-09-22T03:25:51.066Z,4.72
2022-09-22T03:27:54.013Z,4.82
2022-09-22T03:29:57.004Z,5.28
2022-09-22T03:31:59.926Z,5.10
2022-09-22T03:34:02.927Z,4.90
2022-09-22T03:36:06.728Z,5.22
2022-09-22T03:38:09.665Z,4.95
2022-09-22T03:40:12.699Z,4.82
2022-09-22T03:42:17.108Z,5.00
2022-09-22T03:44:20.008Z,5.18
2022-09-22T03:46:23.001Z,5.00
2022-09-22T03:48:26.538Z,5.50
2022-09-22T03:50:29.688Z,5.40
2022-09-22T03:52:33.415Z,5.40
2022-09-22T03:54:37.094Z,5.68
2022-09-22T03:56:40.145Z,5.60
2022-09-22T03:58:44.991Z,5.57
2022-09-22T04:00:49.448Z,4.97
2022-09-22T04:02:52.930Z,4.95
2022-09-22T04:04:56.432Z,6.07
2022-09-22T04:07:03.454Z,5.13
2022-09-22T04:09:10.221Z,5.95
2022-09-22T04:11:13.087Z,5.38
2022-09-22T04:13:17.136Z,5.80
2022-09-22T04:15:21.396Z,5.28
2022-09-22T04:17:24.295Z,6.38
2022-09-22T04:19:27.388Z,5.18
2022-09-22T04:21:30.252Z,5.22
2022-09-22T04:23:33.251Z,5.80
2022-09-22T04:25:36.226Z,5.20
2022-09-22T04:27:39.177Z,5.45
2022-09-22T04:29:42.090Z,6.45
2022-09-22T04:31:46.496Z,5.80
2022-09-22T04:33:49.468Z,5.88
2022-09-22T04:35:53.200Z,5.90
2022-09-22T04:37:56.491Z,5.90
2022-09-22T04:40:00.194Z,5.03
2022-09-22T04:42:03.487Z,6.25
2022-09-22T04:44:07.760Z,5.70
2022-09-22T04:46:11.918Z,5.22
2022-09-22T04:48:17.832Z,6.57
2022-09-22T04:50:23.148Z,5.32
2022-09-22T04:52:27.171Z,5.63
2022-09-22T04:54:31.309Z,5.63
2022-09-22T04:56:35.061Z,5.28
2022-09-22T04:58:39.100Z,4.95
2022-09-22T05:00:43.243Z,5.60
2022-09-22T05:02:47.958Z,5.15
2022-09-22T05:04:53.575Z,5.35
2022-09-22T05:06:56.810Z,5.20
2022-09-22T05:08:59.798Z,5.80
2022-09-22T05:11:06.580Z,5.57
2022-09-22T05:13:09.531Z,5.38
2022-09-22T05:15:14.235Z,5.40
2022-09-22T05:17:17.218Z,5.10
2022-09-22T05:19:20.971Z,5.80
2022-09-22T05:21:25.306Z,6.00
2022-09-22T05:23:28.305Z,5.43
2022-09-22T05:25:31.364Z,6.10
2022-09-22T05:27:34.322Z,5.30
2022-09-22T05:29:37.342Z,5.80
2022-09-22T05:31:40.309Z,5.65
2022-09-22T05:33:43.356Z,5.55
2022-09-22T05:35:46.364Z,5.30
2022-09-22T05:37:52.233Z,5.82
2022-09-22T05:39:55.283Z,5.65
2022-09-22T05:41:58.258Z,5.63
2022-09-22T05:44:01.389Z,6.10
2022-09-22T05:46:04.505Z,6.40
2022-09-22T05:48:07.688Z,6.57
2022-09-22T05:50:12.418Z,6.03
2022-09-22T05:52:15.417Z,6.40
2022-09-22T05:54:23.223Z,5.55
2022-09-22T05:56:26.547Z,6.60
2022-09-22T05:58:29.594Z,6.20
2022-09-22T06:00:33.483Z,6.30
2022-09-22T06:02:37.107Z,6.47
2022-09-22T06:04:40.213Z,6.35
2022-09-22T06:06:43.157Z,6.60
2022-09-22T06:08:48.995Z,6.20
2022-09-22T06:10:53.583Z,6.05
2022-09-22T06:12:59.434Z,6.25
2022-09-22T06:15:02.395Z,6.65
2022-09-22T06:17:10.635Z,6.25
2022-09-22T06:19:14.457Z,6.28
2022-09-22T06:21:17.582Z,6.25
2022-09-22T06:23:20.526Z,5.43
2022-09-22T06:25:23.613Z,6.32
2022-09-22T06:27:27.908Z,6.13
2022-09-22T06:29:30.955Z,6.20
2022-09-22T06:31:33.951Z,5.90
2022-09-22T06:33:36.935Z,6.43
2022-09-22T06:35:42.911Z,5.83
2022-09-22T06:37:47.786Z,6.00
2022-09-22T06:39:50.814Z,6.00
2022-09-22T06:41:56.338Z,6.13
2022-09-22T06:44:01.012Z,6.43
2022-09-22T06:46:04.084Z,6.60
2022-09-22T06:48:10.102Z,7.03
2022-09-22T06:50:13.550Z,6.40
2022-09-22T06:52:16.612Z,7.43
2022-09-22T06:54:22.546Z,7.17
2022-09-22T06:56:29.607Z,6.90
2022-09-22T06:58:46.980Z,6.90
2022-09-22T07:01:09.609Z,6.03
2022-09-22T07:03:17.893Z,6.23
2022-09-22T07:05:21.049Z,6.30
2022-09-22T07:07:27.349Z,6.00
2022-09-22T07:09:30.942Z,6.13
2022-09-22T07:11:38.878Z,7.40
2022-09-22T07:13:44.174Z,7.43
2022-09-22T07:15:47.232Z,6.33
2022-09-22T07:17:54.014Z,6.27
2022-09-22T07:19:58.517Z,7.10
2022-09-22T07:22:03.147Z,6.37
2022-09-22T07:24:08.118Z,6.43
2022-09-22T07:26:13.043Z,6.27
2022-09-22T07:28:15.989Z,5.77
2022-09-22T07:30:20.476Z,6.20
2022-09-22T07:32:23.486Z,5.30
2022-09-22T07:34:27.783Z,6.03
2022-09-22T07:36:32.273Z,5.40
2022-09-22T07:38:36.865Z,5.70
2022-09-22T07:40:39.819Z,6.40
2022-09-22T07:42:42.913Z,6.03
2022-09-22T07:45:02.596Z,5.23
2022-09-22T07:47:05.799Z,5.57
2022-09-22T07:49:08.226Z,6.07
2022-09-22T07:51:16.778Z,5.40
2022-09-22T07:53:20.105Z,5.53
2022-09-22T07:55:24.183Z,6.00
2022-09-22T07:57:30.288Z,5.33
2022-09-22T07:59:33.755Z,5.73
2022-09-22T08:01:37.551Z,5.30
2022-09-22T08:03:40.630Z,4.90
2022-09-22T08:05:43.521Z,4.90
2022-09-22T08:07:48.007Z,5.30
2022-09-22T08:09:51.100Z,5.27
2022-09-22T08:11:54.756Z,4.63
2022-09-22T08:13:59.869Z,4.80
2022-09-22T08:16:05.058Z,4.87
2022-09-22T08:18:08.325Z,4.80
2022-09-22T08:20:12.741Z,4.97
2022-09-22T08:22:15.741Z,4.53
2022-09-22T08:24:22.193Z,4.90
2022-09-22T08:26:25.764Z,4.83
2022-09-22T08:28:28.729Z,5.10
2022-09-22T08:30:31.741Z,4.63
2022-09-22T08:32:36.032Z,10.17
2022-09-22T08:34:38.996Z,4.10
2022-09-22T08:36:48.660Z,4.30
2022-09-22T08:38:51.882Z,3.50
2022-09-22T08:41:07.264Z,3.70
2022-09-22T08:43:12.832Z,3.73
2022-09-22T08:45:27.131Z,3.30
2022-09-22T08:48:06.610Z,3.70
2022-09-22T08:50:33.901Z,3.40
2022-09-22T08:52:39.834Z,3.80
2022-09-22T08:54:43.704Z,3.40
2022-09-22T08:56:57.495Z,3.33
2022-09-22T08:59:05.240Z,3.30
2022-09-22T09:01:18.568Z,3.33
2022-09-22T09:03:27.834Z,3.20
2022-09-22T09:05:50.802Z,4.90
2022-09-22T09:08:00.176Z,2.97
2022-09-22T09:10:08.478Z,2.97
2022-09-22T09:12:27.960Z,2.80
2022-09-22T09:14:50.491Z,2.50
2022-09-22T09:16:56.983Z,2.57
2022-09-22T09:19:06.940Z,2.37
2022-09-22T09:21:14.624Z,2.67
2022-09-22T09:23:19.261Z,6.10
2022-09-22T09:25:28.287Z,2.77
2022-09-22T09:27:36.999Z,2.77
2022-09-22T09:29:44.478Z,1.67
2022-09-22T09:31:49.256Z,1.70
2022-09-22T09:33:56.582Z,1.90
2022-09-22T09:35:59.823Z,2.10
2022-09-22T09:38:03.736Z,2.40
2022-09-22T09:40:15.268Z,1.63
2022-09-22T09:42:23.323Z,1.60
2022-09-22T09:44:30.447Z,1.57
2022-09-22T09:46:42.760Z,1.30
2022-09-22T09:49:02.725Z,1.30
2022-09-22T09:51:06.460Z,1.53
2022-09-22T09:53:30.727Z,1.17
2022-09-22T09:55:35.291Z,1.50
2022-09-22T09:58:06.174Z,1.20
2022-09-22T10:00:31.790Z,1.63
2022-09-22T10:02:37.269Z,1.40
2022-09-22T10:04:40.971Z,1.40
2022-09-22T10:06:44.775Z,1.63
2022-09-22T10:08:51.445Z,1.50
2022-09-22T10:10:58.181Z,1.60
2022-09-22T10:13:23.079Z,1.53
2022-09-22T10:15:28.095Z,1.40
2022-09-22T10:17:34.701Z,1.73
2022-09-22T10:19:37.771Z,1.50
2022-09-22T10:21:40.734Z,1.30
2022-09-22T10:23:44.810Z,1.40
2022-09-22T10:25:49.220Z,1.93
2022-09-22T10:28:06.958Z,1.30
2022-09-22T10:30:23.921Z,1.57
2022-09-22T10:32:28.289Z,1.33
2022-09-22T10:34:33.348Z,1.73
2022-09-22T10:36:37.497Z,1.67
2022-09-22T10:38:41.588Z,2.00
2022-09-22T10:40:47.588Z,1.90
2022-09-22T10:42:51.483Z,1.80
2022-09-22T10:44:57.282Z,1.70
2022-09-22T10:47:12.062Z,1.77
2022-09-22T10:49:21.938Z,1.50
2022-09-22T10:51:39.887Z,2.03
2022-09-22T10:54:05.197Z,1.73
2022-09-22T10:56:14.286Z,1.40
2022-09-22T10:58:28.193Z,1.67
2022-09-22T11:00:36.721Z,1.43
2022-09-22T11:03:22.371Z,1.70
2022-09-22T11:05:55.717Z,1.60
2022-09-22T11:08:22.840Z,1.40
2022-09-22T11:10:51.270Z,1.73
2022-09-22T11:13:01.023Z,1.80
2022-09-22T11:15:16.504Z,1.80
2022-09-22T11:17:31.417Z,1.73
2022-09-22T11:19:58.698Z,1.37
2022-09-22T11:22:18.068Z,1.40
2022-09-22T11:24:48.115Z,1.60
2022-09-22T11:26:53.517Z,1.40
2022-09-22T11:29:11.047Z,1.60
2022-09-22T11:31:20.809Z,1.50
2022-09-22T11:33:45.713Z,1.40
2022-09-22T11:36:06.192Z,1.40
2022-09-22T11:38:26.043Z,1.60
2022-09-22T11:40:37.059Z,1.50
2022-09-22T11:42:46.173Z,2.20
2022-09-22T11:44:56.036Z,1.63
2022-09-22T11:47:12.539Z,1.63
2022-09-22T11:49:23.627Z,1.73
2022-09-22T11:51:36.501Z,1.60
2022-09-22T11:53:58.443Z,1.90
2022-09-22T11:56:21.475Z,1.80
2022-09-22T11:58:27.783Z,1.40
2022-09-22T12:00:35.856Z,1.70
2022-09-22T12:02:41.291Z,1.50
2022-09-22T12:04:47.927Z,1.60
2022-09-22T12:06:52.957Z,1.70
2022-09-22T12:09:01.286Z,1.70
2022-09-22T12:11:07.700Z,1.93
2022-09-22T12:13:15.296Z,1.63
2022-09-22T12:15:23.485Z,1.67
2022-09-22T12:17:31.408Z,1.60
2022-09-22T12:19:41.850Z,1.63
2022-09-22T12:21:51.199Z,2.00
2022-09-22T12:23:55.118Z,1.80
2022-09-22T12:26:02.930Z,1.70
2022-09-22T12:28:05.855Z,2.00
2022-09-22T12:30:21.538Z,4.90
2022-09-22T12:32:26.257Z,1.90
2022-09-22T12:34:32.602Z,1.60
2022-09-22T12:36:38.496Z,1.77
2022-09-22T12:38:41.575Z,1.63
2022-09-22T12:40:49.521Z,4.00
2022-09-22T12:42:54.734Z,1.53
2022-09-22T12:44:59.150Z,1.70
2022-09-22T12:47:04.433Z,1.60
2022-09-22T12:49:09.201Z,1.50
2022-09-22T12:51:33.224Z,1.80
2022-09-22T12:53:40.137Z,1.90
2022-09-22T12:55:46.095Z,1.73
2022-09-22T12:57:50.297Z,1.60
2022-09-22T13:00:12.938Z,1.70
2022-09-22T13:02:23.566Z,1.60
2022-09-22T13:04:26.704Z,1.50
2022-09-22T13:07:06.321Z,1.50
2022-09-22T13:09:20.485Z,1.70
2022-09-22T13:11:57.097Z,1.53
2022-09-22T13:14:00.158Z,1.60
2022-09-22T13:16:06.844Z,1.63
2022-09-22T13:18:34.816Z,1.43
2022-09-22T13:20:37.891Z,1.70
2022-09-22T13:22:40.871Z,1.60
2022-09-22T13:24:43.884Z,1.60
2022-09-22T13:26:46.803Z,1.77
2022-09-22T13:29:00.392Z,1.70
2022-09-22T13:31:11.272Z,1.70
2022-09-22T13:33:22.191Z,1.87
2022-09-22T13:35:27.248Z,1.70
2022-09-22T13:37:31.121Z,1.73
2022-09-22T13:39:36.302Z,1.80
2022-09-22T13:41:44.144Z,1.60
2022-09-22T13:43:50.135Z,1.73
2022-09-22T13:45:53.660Z,1.50
2022-09-22T13:48:07.553Z,1.50
2022-09-22T13:50:14.561Z,1.50
2022-09-22T13:52:21.640Z,2.03
2022-09-22T13:54:27.300Z,1.77
2022-09-22T13:56:30.291Z,1.87
2022-09-22T13:58:36.738Z,2.10
2022-09-22T14:01:08.803Z,1.90
2022-09-22T14:03:07.311Z,1.80
2022-09-22T14:05:18.247Z,1.90
2022-09-22T14:07:22.572Z,1.57
2022-09-22T14:09:26.243Z,1.87
2022-09-22T14:11:31.997Z,1.87
2022-09-22T14:13:39.425Z,2.30
2022-09-22T14:15:44.220Z,1.70
2022-09-22T14:17:47.222Z,1.93
2022-09-22T14:19:56.195Z,2.13
2022-09-22T14:22:01.008Z,2.40
2022-09-22T14:24:04.116Z,1.83
2022-09-22T14:26:23.436Z,2.10
2022-09-22T14:28:28.490Z,2.00
2022-09-22T14:30:41.857Z,1.83
2022-09-22T14:32:49.139Z,2.13
2022-09-22T14:34:57.527Z,1.70
2022-09-22T14:37:02.452Z,1.87
2022-09-22T14:39:10.028Z,1.80
2022-09-22T14:41:22.966Z,1.80
2022-09-22T14:43:28.983Z,1.80
2022-09-22T14:45:32.779Z,2.23
2022-09-22T14:47:39.495Z,1.90
2022-09-22T14:49:44.568Z,1.87
2022-09-22T14:51:50.095Z,1.90
2022-09-22T14:54:01.499Z,1.60
2022-09-22T14:56:07.582Z,1.90
2022-09-22T14:58:18.600Z,2.00
2022-09-22T15:00:39.002Z,2.07
2022-09-22T15:02:44.522Z,1.97
2022-09-22T15:04:51.564Z,2.40
2022-09-22T15:06:57.534Z,1.80
2022-09-22T15:09:04.083Z,1.80
2022-09-22T15:11:07.227Z,2.20
2022-09-22T15:13:30.629Z,1.90
2022-09-22T15:15:33.718Z,2.03
2022-09-22T15:17:56.663Z,3.20
2022-09-22T15:19:59.851Z,3.53
2022-09-22T15:22:06.971Z,5.20
2022-09-22T15:24:10.814Z,8.87
2022-09-22T15:26:16.993Z,2.23
2022-09-22T15:28:23.700Z,2.80
2022-09-22T15:30:31.883Z,2.90
2022-09-22T15:32:34.955Z,2.30
2022-09-22T15:34:40.759Z,2.87
2022-09-22T15:36:46.514Z,2.30
2022-09-22T15:38:50.850Z,2.77
2022-09-22T15:40:53.991Z,2.80
2022-09-22T15:43:12.363Z,4.40
2022-09-22T15:45:18.667Z,5.60
2022-09-22T15:47:21.673Z,3.57
2022-09-22T15:49:26.452Z,2.43
2022-09-22T15:51:30.419Z,2.20
2022-09-22T15:53:35.010Z,2.20
2022-09-22T15:55:39.428Z,2.20
2022-09-22T15:57:43.543Z,3.10
2022-09-22T15:59:46.702Z,3.70
2022-09-22T16:01:49.783Z,2.80
2022-09-22T16:03:52.783Z,2.57
2022-09-22T16:05:58.027Z,3.70
2022-09-22T16:08:01.149Z,1.90
2022-09-22T16:10:04.391Z,2.40
2022-09-22T16:12:10.982Z,1.70
2022-09-22T16:14:14.253Z,2.60
2022-09-22T16:16:18.247Z,2.30
2022-09-22T16:18:21.346Z,2.00
2022-09-22T16:20:24.348Z,1.83
2022-09-22T16:22:27.435Z,1.70
2022-09-22T16:24:31.006Z,1.97
2022-09-22T16:26:33.987Z,2.00
2022-09-22T16:28:38.815Z,1.70
2022-09-22T16:30:41.814Z,1.83
2022-09-22T16:32:44.790Z,2.10
2022-09-22T16:34:48.037Z,1.30
2022-09-22T16:36:52.515Z,1.87
2022-09-22T16:38:56.270Z,2.40
2022-09-22T16:41:02.770Z,2.00
2022-09-22T16:43:07.484Z,2.10
2022-09-22T16:45:12.096Z,2.77
2022-09-22T16:47:15.755Z,2.20
2022-09-22T16:49:20.354Z,2.20
2022-09-22T16:51:23.375Z,3.10
2022-09-22T16:53:26.492Z,2.23
2022-09-22T16:55:29.635Z,2.00
2022-09-22T16:57:32.633Z,3.30
2022-09-22T16:59:35.692Z,2.87
2022-09-22T17:01:40.131Z,2.40
2022-09-22T17:03:43.196Z,2.73
2022-09-22T17:05:46.701Z,4.73
2022-09-22T17:07:50.070Z,3.43
2022-09-22T17:09:53.099Z,4.00
2022-09-22T17:11:57.883Z,2.50
2022-09-22T17:14:03.177Z,2.70
2022-09-22T17:16:09.994Z,3.50
2022-09-22T17:18:14.365Z,3.30
2022-09-22T17:20:17.593Z,2.47
2022-09-22T17:22:21.308Z,2.87
2022-09-22T17:24:25.739Z,2.53
2022-09-22T17:26:30.241Z,3.10
2022-09-22T17:28:33.518Z,2.30
2022-09-22T17:30:36.535Z,2.50
2022-09-22T17:32:39.685Z,2.60
2022-09-22T17:34:44.003Z,2.60
2022-09-22T17:36:47.301Z,2.63
2022-09-22T17:38:52.468Z,3.10
2022-09-22T17:41:07.178Z,2.60
2022-09-22T17:43:11.158Z,2.60
2022-09-22T17:45:14.294Z,2.50
2022-09-22T17:47:43.355Z,2.27
2022-09-22T17:50:05.227Z,2.17
2022-09-22T17:52:27.248Z,2.80
2022-09-22T17:54:49.448Z,2.70
2022-09-22T17:56:52.401Z,2.50
2022-09-22T17:58:55.434Z,3.00
2022-09-22T18:00:58.366Z,2.93
2022-09-22T18:03:02.311Z,2.57
2022-09-22T18:05:08.423Z,2.43
2022-09-22T18:07:17.747Z,3.30
2022-09-22T18:09:21.981Z,3.10
2022-09-22T18:11:27.211Z,3.60
2022-09-22T18:13:30.206Z,3.40
2022-09-22T18:15:33.266Z,3.50
2022-09-22T18:17:41.293Z,3.50
2022-09-22T18:19:44.390Z,3.93
2022-09-22T18:21:48.698Z,3.80
2022-09-22T18:23:52.606Z,3.40
2022-09-22T18:26:02.186Z,3.90
2022-09-22T18:28:05.609Z,3.70
2022-09-22T18:30:14.185Z,3.50
2022-09-22T18:32:20.341Z,3.50
2022-09-22T18:34:23.716Z,3.10
2022-09-22T18:36:28.385Z,3.20
2022-09-22T18:38:33.416Z,3.17
2022-09-22T18:40:36.877Z,3.57
2022-09-22T18:42:41.363Z,3.57
2022-09-22T18:44:44.431Z,3.30
2022-09-22T18:46:48.198Z,4.50
2022-09-22T18:49:04.465Z,5.70
2022-09-22T18:51:07.921Z,7.43
2022-09-22T18:53:10.877Z,7.00
2022-09-22T18:55:17.330Z,8.40
2022-09-22T18:57:22.547Z,7.90
2022-09-22T18:59:27.463Z,6.80
2022-09-22T19:01:34.436Z,6.50
2022-09-22T19:03:38.550Z,5.80
2022-09-22T19:05:41.559Z,6.00
2022-09-22T19:07:47.671Z,5.87
2022-09-22T19:09:52.378Z,5.70
2022-09-22T19:11:56.850Z,6.00
2022-09-22T19:13:59.928Z,6.37
2022-09-22T19:16:04.551Z,6.80
2022-09-22T19:18:07.607Z,7.27
2022-09-22T19:20:12.325Z,8.77
2022-09-22T19:22:15.724Z,8.17
2022-09-22T19:24:18.846Z,10.67
2022-09-22T19:26:23.220Z,11.13
2022-09-22T19:28:28.533Z,9.00
2022-09-22T19:30:31.784Z,9.10
2022-09-22T19:32:35.035Z,7.37
2022-09-22T19:34:38.077Z,7.50
2022-09-22T19:36:41.757Z,7.63
2022-09-22T19:38:44.724Z,7.17
2022-09-22T19:40:47.741Z,7.27
2022-09-22T19:42:52.341Z,8.10
2022-09-22T19:44:56.804Z,6.90
2022-09-22T19:47:00.012Z,7.10
2022-09-22T19:49:03.160Z,6.90
2022-09-22T19:51:06.501Z,8.00
2022-09-22T19:53:09.602Z,7.73
2022-09-22T19:55:12.957Z,7.67
2022-09-22T19:57:16.029Z,8.30
2022-09-22T19:59:19.743Z,8.27
2022-09-22T20:01:32.384Z,7.83
2022-09-22T20:03:35.409Z,7.30
2022-09-22T20:05:39.482Z,7.50
2022-09-22T20:07:42.530Z,7.57
2022-09-22T20:09:45.543Z,6.83
2022-09-22T20:11:51.926Z,7.40
2022-09-22T20:14:12.229Z,7.50
2022-09-22T20:16:15.169Z,25.90
2022-09-22T20:18:22.081Z,24.73
2022-09-22T20:20:26.892Z,9.47
2022-09-22T20:22:30.542Z,7.13
2022-09-22T20:24:34.044Z,6.70
2022-09-22T20:26:40.516Z,6.43
2022-09-22T20:28:44.005Z,40.97
2022-09-22T20:30:47.333Z,15.27
2022-09-22T20:32:51.096Z,8.07
2022-09-22T20:34:56.452Z,7.30
2022-09-22T20:36:59.505Z,6.67
2022-09-22T20:39:02.575Z,6.77
2022-09-22T20:41:05.757Z,6.40
2022-09-22T20:43:11.835Z,6.23
2022-09-22T20:45:15.408Z,6.30
2022-09-22T20:47:25.522Z,6.23
2022-09-22T20:49:28.597Z,6.27
2022-09-22T20:51:34.034Z,6.77
2022-09-22T20:53:37.992Z,7.20
2022-09-22T20:55:40.934Z,7.10
2022-09-22T20:57:43.897Z,7.03
2022-09-22T20:59:47.614Z,7.67
2022-09-22T21:01:50.638Z,6.73
2022-09-22T21:03:53.617Z,7.37
2022-09-22T21:05:59.971Z,7.20
2022-09-22T21:08:18.279Z,6.70
2022-09-22T21:10:36.452Z,7.13
2022-09-22T21:12:39.771Z,7.20
2022-09-22T21:14:45.923Z,7.07
2022-09-22T21:16:49.379Z,7.07
2022-09-22T21:18:53.106Z,6.80
2022-09-22T21:20:57.431Z,6.23
2022-09-22T21:23:01.189Z,7.53
2022-09-22T21:25:06.342Z,23.17
2022-09-22T21:27:09.496Z,10.47
2022-09-22T21:29:12.413Z,7.70
2022-09-22T21:31:15.514Z,6.47
2022-09-22T21:33:18.507Z,7.40
2022-09-22T21:35:21.440Z,6.87
2022-09-22T21:37:25.068Z,7.13
2022-09-22T21:39:28.113Z,6.83
2022-09-22T21:41:33.110Z,6.47
2022-09-22T21:43:36.484Z,6.80
2022-09-22T21:45:39.377Z,7.00
2022-09-22T21:47:42.281Z,6.57
2022-09-22T21:49:45.201Z,6.63
2022-09-22T21:51:48.348Z,6.83
2022-09-22T21:53:53.874Z,7.40
2022-09-22T21:55:58.374Z,7.00
2022-09-22T21:58:02.730Z,7.30
2022-09-22T22:00:08.106Z,7.03
2022-09-22T22:02:14.910Z,6.70
2022-09-22T22:04:18.236Z,6.37
2022-09-22T22:06:22.425Z,6.70
2022-09-22T22:08:25.345Z,6.10
2022-09-22T22:10:28.400Z,6.10
2022-09-22T22:12:31.356Z,6.43
2022-09-22T22:14:35.729Z,6.65
2022-09-22T22:16:40.398Z,6.13
2022-09-22T22:18:43.479Z,6.67
2022-09-22T22:20:46.456Z,6.07
2022-09-22T22:22:49.562Z,6.23
2022-09-22T22:24:52.679Z,6.07
2022-09-22T22:26:57.453Z,6.20
2022-09-22T22:29:00.541Z,6.63
2022-09-22T22:31:07.015Z,6.67
2022-09-22T22:33:10.129Z,6.23
2022-09-22T22:35:13.121Z,6.03
2022-09-22T22:37:16.781Z,6.57
2022-09-22T22:39:19.860Z,6.50
2022-09-22T22:41:22.822Z,6.30
2022-09-22T22:43:25.775Z,6.47
2022-09-22T22:45:28.750Z,6.60
2022-09-22T22:47:34.165Z,6.60
2022-09-22T22:49:37.221Z,6.80
2022-09-22T22:51:42.733Z,5.60
2022-09-22T22:53:46.118Z,6.43
2022-09-22T22:55:57.217Z,6.10
2022-09-22T22:58:00.191Z,6.67
2022-09-22T23:00:03.473Z,5.83
2022-09-22T23:02:06.451Z,6.00
2022-09-22T23:04:11.835Z,6.10
2022-09-22T23:06:16.947Z,6.03
2022-09-22T23:08:19.903Z,6.07
2022-09-22T23:10:23.003Z,6.43
2022-09-22T23:12:25.888Z,6.07
2022-09-22T23:14:28.825Z,6.27
2022-09-22T23:16:33.426Z,6.80
2022-09-22T23:18:38.087Z,6.30
2022-09-22T23:20:42.547Z,5.75
2022-09-22T23:22:45.511Z,6.50
2022-09-22T23:24:49.112Z,6.00
2022-09-22T23:26:52.053Z,6.10
2022-09-22T23:28:55.191Z,5.77
2022-09-22T23:30:58.709Z,6.20
2022-09-22T23:33:01.735Z,6.17
2022-09-22T23:35:06.599Z,6.05
2022-09-22T23:37:11.247Z,6.53
2022-09-22T23:39:14.197Z,5.93
2022-09-22T23:41:17.125Z,6.10
2022-09-22T23:43:20.172Z,5.77
2022-09-22T23:45:23.088Z,5.60
2022-09-22T23:47:26.022Z,6.18
2022-09-22T23:49:29.000Z,6.35
2022-09-22T23:51:32.249Z,6.07
2022-09-22T23:53:38.012Z,6.10
2022-09-22T23:55:41.495Z,5.88
2022-09-22T23:57:44.387Z,6.40
2022-09-22T23:59:47.353Z,5.68
